createdAt,value
2022-08-16T00:00:03.614Z,19.60
2022-08-16T00:02:34.412Z,18.81
2022-08-16T00:05:02.831Z,18.86
2022-08-16T00:07:30.541Z,20.51
2022-08-16T00:09:59.052Z,19.37
2022-08-16T00:12:31.398Z,19.36
2022-08-16T00:15:01.714Z,20.98
2022-08-16T00:17:28.570Z,18.96
2022-08-16T00:20:15.612Z,18.10
2022-08-16T00:22:44.106Z,19.21
2022-08-16T00:25:15.406Z,18.91
2022-08-16T00:27:43.403Z,19.32
2022-08-16T00:30:19.457Z,19.22
2022-08-16T00:32:58.099Z,18.90
2022-08-16T00:35:34.903Z,18.97
2022-08-16T00:38:41.514Z,18.78
2022-08-16T00:40:55.297Z,19.67
2022-08-16T00:43:42.698Z,19.92
2022-08-16T00:46:33.766Z,19.40
2022-08-16T00:49:17.638Z,20.00
2022-08-16T00:51:55.086Z,19.99
2022-08-16T00:54:26.783Z,19.83
2022-08-16T00:57:00.056Z,20.24
2022-08-16T00:59:32.806Z,19.70
2022-08-16T01:02:01.142Z,21.04
2022-08-16T01:05:09.631Z,20.13
2022-08-16T01:07:50.407Z,19.96
2022-08-16T01:10:21.473Z,20.60
2022-08-16T01:13:05.242Z,20.18
2022-08-16T01:15:36.158Z,21.09
2022-08-16T01:18:05.901Z,20.87
2022-08-16T01:20:38.275Z,19.69
2022-08-16T01:23:18.635Z,20.23
2022-08-16T01:25:59.906Z,20.12
2022-08-16T01:28:39.011Z,20.18
2022-08-16T01:31:14.766Z,19.59
2022-08-16T01:33:44.511Z,19.13
2022-08-16T01:36:13.080Z,19.10
2022-08-16T01:38:51.309Z,19.51
2022-08-16T01:41:30.000Z,19.92
2022-08-16T01:44:00.993Z,20.85
2022-08-16T01:46:42.618Z,20.28
2022-08-16T01:49:15.715Z,19.66
2022-08-16T01:51:47.976Z,19.37
2022-08-16T01:54:30.918Z,21.44
2022-08-16T01:57:00.350Z,20.30
2022-08-16T01:59:29.115Z,20.15
2022-08-16T02:01:59.613Z,20.70
2022-08-16T02:04:48.816Z,20.39
2022-08-16T02:07:18.783Z,21.12
2022-08-16T02:09:58.667Z,20.83
2022-08-16T02:12:50.124Z,20.50
2022-08-16T02:15:25.210Z,20.77
2022-08-16T02:17:58.291Z,21.15
2022-08-16T02:20:27.799Z,19.67
2022-08-16T02:22:56.557Z,20.08
2022-08-16T02:25:24.778Z,20.48
2022-08-16T02:28:11.659Z,20.97
2022-08-16T02:30:50.528Z,21.82
2022-08-16T02:33:19.534Z,20.52
2022-08-16T02:35:55.178Z,20.44
2022-08-16T02:38:29.158Z,21.98
2022-08-16T02:41:01.763Z,19.95
2022-08-16T02:43:33.134Z,20.80
2022-08-16T02:46:07.381Z,21.98
2022-08-16T02:48:38.678Z,20.34
2022-08-16T02:51:10.622Z,22.19
2022-08-16T02:53:43.862Z,20.60
2022-08-16T02:56:16.908Z,20.00
2022-08-16T02:58:50.711Z,21.69
2022-08-16T03:01:24.924Z,20.76
2022-08-16T03:04:29.993Z,20.85
2022-08-16T03:06:56.374Z,20.94
2022-08-16T03:09:49.899Z,21.05
2022-08-16T03:12:21.390Z,20.48
2022-08-16T03:14:57.843Z,21.67
2022-08-16T03:17:32.185Z,21.94
2022-08-16T03:20:03.190Z,21.95
2022-08-16T03:22:37.533Z,20.64
2022-08-16T03:25:13.950Z,20.60
2022-08-16T03:27:51.887Z,20.69
2022-08-16T03:30:24.158Z,20.71
2022-08-16T03:32:58.126Z,21.70
2022-08-16T03:35:33.262Z,21.70
2022-08-16T03:38:32.528Z,21.24
2022-08-16T03:41:14.401Z,21.49
2022-08-16T03:43:55.883Z,19.83
2022-08-16T03:46:47.903Z,20.02
2022-08-16T03:49:15.677Z,20.35
2022-08-16T03:51:46.255Z,20.44
2022-08-16T03:54:28.578Z,19.48
2022-08-16T03:56:57.961Z,20.93
2022-08-16T03:59:30.273Z,20.12
2022-08-16T04:02:21.901Z,21.38
2022-08-16T04:04:51.924Z,21.97
2022-08-16T04:07:18.903Z,23.26
2022-08-16T04:09:47.484Z,20.80
2022-08-16T04:13:04.344Z,21.43
2022-08-16T04:15:02.998Z,21.44
2022-08-16T04:17:37.059Z,20.17
2022-08-16T04:20:23.874Z,19.65
2022-08-16T04:22:58.333Z,20.30
2022-08-16T04:25:27.545Z,21.52
2022-08-16T04:27:55.999Z,20.54
2022-08-16T04:30:31.690Z,19.60
2022-08-16T04:33:02.318Z,21.58
2022-08-16T04:35:34.528Z,20.79
2022-08-16T04:38:10.948Z,21.70
2022-08-16T04:40:50.583Z,21.37
2022-08-16T04:43:19.164Z,20.30
2022-08-16T04:45:47.249Z,20.13
2022-08-16T04:48:32.588Z,20.32
2022-08-16T04:51:11.560Z,20.84
2022-08-16T04:53:45.894Z,20.65
2022-08-16T04:56:16.531Z,20.79
2022-08-16T04:58:46.600Z,21.10
2022-08-16T05:01:17.983Z,20.87
2022-08-16T05:04:00.994Z,20.59
2022-08-16T05:06:41.989Z,20.43
2022-08-16T05:09:19.254Z,20.50
2022-08-16T05:11:53.225Z,20.06
2022-08-16T05:14:45.988Z,19.91
2022-08-16T05:17:12.876Z,20.64
2022-08-16T05:19:39.873Z,19.91
2022-08-16T05:22:18.340Z,20.21
2022-08-16T05:24:55.124Z,20.61
2022-08-16T05:27:23.191Z,21.12
2022-08-16T05:29:57.071Z,20.29
2022-08-16T05:32:34.107Z,20.48
2022-08-16T05:35:14.583Z,20.54
2022-08-16T05:37:59.822Z,19.71
2022-08-16T05:40:27.269Z,19.58
2022-08-16T05:42:55.614Z,19.90
2022-08-16T05:45:23.862Z,21.91
2022-08-16T05:48:00.384Z,21.10
2022-08-16T05:50:41.656Z,20.96
2022-08-16T05:53:10.055Z,19.88
2022-08-16T05:55:45.986Z,20.28
2022-08-16T05:58:31.970Z,20.53
2022-08-16T06:01:01.098Z,20.20
2022-08-16T06:03:30.901Z,21.76
2022-08-16T06:06:02.618Z,22.17
2022-08-16T06:08:42.336Z,22.86
2022-08-16T06:11:15.252Z,22.16
2022-08-16T06:13:48.303Z,21.62
2022-08-16T06:16:22.148Z,21.53
2022-08-16T06:18:54.778Z,19.84
2022-08-16T06:21:23.705Z,20.30
2022-08-16T06:23:57.181Z,20.56
2022-08-16T06:26:36.826Z,21.28
2022-08-16T06:29:08.249Z,20.39
2022-08-16T06:31:49.059Z,19.89
2022-08-16T06:34:31.568Z,19.68
2022-08-16T06:37:08.022Z,19.01
2022-08-16T06:39:49.707Z,18.76
2022-08-16T06:42:47.544Z,21.84
2022-08-16T06:45:43.202Z,18.95
2022-08-16T06:48:33.211Z,18.61
2022-08-16T06:51:04.789Z,17.82
2022-08-16T06:53:35.497Z,18.11
2022-08-16T06:56:14.794Z,17.86
2022-08-16T06:59:12.482Z,17.34
2022-08-16T07:01:54.372Z,20.03
2022-08-16T07:04:33.084Z,17.73
2022-08-16T07:07:14.588Z,19.04
2022-08-16T07:09:42.476Z,18.50
2022-08-16T07:12:09.700Z,18.13
2022-08-16T07:14:41.819Z,20.07
2022-08-16T07:17:12.904Z,18.74
2022-08-16T07:20:29.478Z,17.47
2022-08-16T07:22:52.575Z,16.90
2022-08-16T07:25:27.689Z,15.54
2022-08-16T07:27:55.106Z,15.94
2022-08-16T07:30:39.219Z,16.98
2022-08-16T07:33:52.502Z,17.33
2022-08-16T07:36:09.859Z,15.17
2022-08-16T07:38:42.672Z,16.36
2022-08-16T07:41:10.783Z,15.86
2022-08-16T07:43:43.648Z,17.05
2022-08-16T07:46:38.363Z,15.97
2022-08-16T07:49:05.050Z,16.10
2022-08-16T07:51:39.086Z,16.53
2022-08-16T07:54:10.719Z,17.69
2022-08-16T07:56:44.505Z,16.14
2022-08-16T07:59:11.526Z,16.62
2022-08-16T08:01:41.490Z,15.72
2022-08-16T08:04:13.004Z,14.95
2022-08-16T08:06:42.740Z,14.71
2022-08-16T08:09:17.006Z,15.31
2022-08-16T08:12:00.629Z,15.02
2022-08-16T08:14:35.264Z,16.45
2022-08-16T08:17:02.099Z,17.28
2022-08-16T08:19:32.351Z,18.21
2022-08-16T08:22:02.536Z,15.13
2022-08-16T08:24:43.840Z,15.36
2022-08-16T08:27:12.888Z,14.33
2022-08-16T08:30:50.354Z,15.59
2022-08-16T08:32:57.726Z,14.66
2022-08-16T08:35:27.108Z,14.20
2022-08-16T08:37:56.597Z,14.87
2022-08-16T08:40:28.103Z,14.11
2022-08-16T08:43:12.014Z,15.14
2022-08-16T08:45:48.600Z,15.14
2022-08-16T08:48:32.842Z,14.01
2022-08-16T08:51:08.912Z,16.19
2022-08-16T08:53:44.269Z,14.14
2022-08-16T08:56:23.008Z,15.85
2022-08-16T08:58:59.187Z,15.13
2022-08-16T09:01:42.972Z,16.30
2022-08-16T09:04:25.055Z,14.60
2022-08-16T09:06:54.177Z,15.96
2022-08-16T09:09:23.250Z,14.77
2022-08-16T09:12:06.638Z,15.45
2022-08-16T09:14:50.832Z,18.13
2022-08-16T09:17:45.271Z,16.99
2022-08-16T09:20:16.483Z,14.21
2022-08-16T09:22:44.312Z,14.56
2022-08-16T09:25:25.794Z,14.27
2022-08-16T09:27:58.070Z,14.39
2022-08-16T09:30:43.415Z,13.16
2022-08-16T09:33:14.601Z,14.56
2022-08-16T09:35:42.826Z,15.32
2022-08-16T09:38:12.377Z,15.82
2022-08-16T09:40:49.140Z,13.55
2022-08-16T09:43:53.063Z,13.43
2022-08-16T09:46:46.027Z,15.29
2022-08-16T09:48:56.582Z,14.75
2022-08-16T09:51:30.573Z,16.51
2022-08-16T09:53:57.751Z,15.14
2022-08-16T09:56:31.700Z,15.25
2022-08-16T09:59:03.276Z,13.83
2022-08-16T10:01:31.887Z,14.48
2022-08-16T10:04:01.711Z,15.23
2022-08-16T10:06:33.437Z,15.49
2022-08-16T10:09:11.244Z,14.36
2022-08-16T10:12:11.733Z,14.15
2022-08-16T10:14:46.238Z,14.10
2022-08-16T10:17:13.458Z,13.65
2022-08-16T10:19:40.295Z,14.16
2022-08-16T10:22:07.106Z,14.13
2022-08-16T10:24:34.063Z,13.53
2022-08-16T10:27:25.311Z,13.70
2022-08-16T10:30:00.870Z,13.63
2022-08-16T10:32:30.338Z,12.45
2022-08-16T10:34:57.792Z,12.51
2022-08-16T10:37:32.259Z,12.05
2022-08-16T10:40:28.492Z,13.33
2022-08-16T10:43:00.268Z,13.98
2022-08-16T10:45:36.466Z,13.22
2022-08-16T10:48:06.448Z,13.48
2022-08-16T10:50:53.337Z,12.67
2022-08-16T10:53:21.751Z,12.82
2022-08-16T10:55:57.523Z,13.71
2022-08-16T10:58:34.383Z,14.60
2022-08-16T11:03:57.427Z,11.99
2022-08-16T11:06:26.953Z,13.23
2022-08-16T11:14:30.736Z,13.17
2022-08-16T11:17:09.338Z,13.78
2022-08-16T11:22:42.221Z,13.69
2022-08-16T11:28:08.495Z,13.50
2022-08-16T11:30:39.203Z,12.63
2022-08-16T11:33:09.100Z,13.37
2022-08-16T11:38:51.883Z,11.85
2022-08-16T11:41:13.886Z,11.06
2022-08-16T11:43:42.022Z,13.73
2022-08-16T11:46:44.339Z,11.79
2022-08-16T11:48:59.850Z,13.32
2022-08-16T11:51:27.479Z,12.42
2022-08-16T11:53:54.581Z,12.41
2022-08-16T11:56:39.614Z,12.59
2022-08-16T11:59:08.903Z,10.93
2022-08-16T12:01:44.424Z,13.64
2022-08-16T12:04:23.196Z,11.87
2022-08-16T12:06:53.753Z,13.75
2022-08-16T12:09:22.488Z,13.82
2022-08-16T12:11:52.802Z,13.28
2022-08-16T12:14:22.845Z,12.87
2022-08-16T12:16:55.517Z,11.76
2022-08-16T12:19:35.123Z,13.51
2022-08-16T12:22:05.744Z,12.07
2022-08-16T12:24:47.973Z,13.30
2022-08-16T12:27:19.454Z,12.64
2022-08-16T12:29:46.204Z,13.78
2022-08-16T12:32:38.646Z,13.21
2022-08-16T12:35:00.127Z,13.23
2022-08-16T12:37:27.797Z,15.54
2022-08-16T12:39:56.828Z,13.28
2022-08-16T12:42:34.431Z,12.86
2022-08-16T12:45:10.158Z,12.13
2022-08-16T12:48:16.041Z,12.47
2022-08-16T12:50:43.566Z,13.00
2022-08-16T12:53:16.886Z,12.80
2022-08-16T12:55:44.959Z,13.64
2022-08-16T12:58:49.276Z,13.03
2022-08-16T13:01:03.462Z,14.49
2022-08-16T13:03:32.268Z,11.45
2022-08-16T13:06:08.269Z,12.52
2022-08-16T13:08:35.123Z,13.87
2022-08-16T13:11:04.706Z,12.77
2022-08-16T13:13:36.112Z,14.15
2022-08-16T13:16:15.133Z,13.13
2022-08-16T13:18:52.728Z,13.38
2022-08-16T13:21:23.385Z,13.17
2022-08-16T13:23:55.305Z,13.43
2022-08-16T13:26:24.357Z,11.59
2022-08-16T13:28:53.910Z,11.94
2022-08-16T13:31:20.714Z,12.13
2022-08-16T13:33:47.607Z,12.27
2022-08-16T13:36:32.153Z,11.43
2022-08-16T13:39:01.934Z,10.96
2022-08-16T13:41:30.141Z,11.49
2022-08-16T13:44:00.900Z,11.10
2022-08-16T13:46:36.849Z,11.14
2022-08-16T13:49:04.302Z,11.99
2022-08-16T13:51:31.605Z,11.77
2022-08-16T13:54:03.950Z,11.73
2022-08-16T13:56:38.837Z,11.01
2022-08-16T13:59:19.511Z,11.81
2022-08-16T14:01:59.762Z,12.37
2022-08-16T14:04:34.041Z,12.18
2022-08-16T14:07:04.392Z,11.06
2022-08-16T14:09:34.518Z,12.34
2022-08-16T14:12:09.527Z,11.77
2022-08-16T14:14:36.971Z,11.47
2022-08-16T14:17:04.562Z,11.21
2022-08-16T14:19:31.321Z,11.77
2022-08-16T14:22:14.203Z,12.12
2022-08-16T14:24:45.376Z,10.62
2022-08-16T14:27:16.990Z,10.78
2022-08-16T14:29:45.752Z,11.63
2022-08-16T14:32:33.359Z,10.56
2022-08-16T14:35:08.933Z,10.06
2022-08-16T14:37:37.199Z,11.09
2022-08-16T14:40:10.804Z,11.25
2022-08-16T14:42:40.968Z,9.24
2022-08-16T14:45:14.580Z,9.69
2022-08-16T14:47:42.151Z,10.79
2022-08-16T14:50:13.686Z,12.15
2022-08-16T14:52:56.634Z,12.65
2022-08-16T14:55:27.414Z,11.35
2022-08-16T14:57:54.955Z,10.82
2022-08-16T15:00:27.014Z,11.23
2022-08-16T15:03:02.343Z,11.60
2022-08-16T15:08:01.703Z,11.58
2022-08-16T15:10:29.361Z,11.19
2022-08-16T15:12:58.382Z,10.61
2022-08-16T15:15:29.173Z,9.94
2022-08-16T15:17:57.401Z,9.52
2022-08-16T15:20:29.173Z,10.42
2022-08-16T15:22:57.388Z,10.65
2022-08-16T15:25:34.501Z,12.06
2022-08-16T15:28:04.599Z,10.58
2022-08-16T15:30:58.089Z,11.32
2022-08-16T15:33:25.340Z,10.99
2022-08-16T15:35:57.891Z,11.78
2022-08-16T15:38:55.088Z,11.75
2022-08-16T15:41:48.623Z,10.64
2022-08-16T15:44:22.300Z,9.93
2022-08-16T15:46:59.784Z,9.95
2022-08-16T15:49:37.825Z,12.54
2022-08-16T15:52:29.134Z,11.69
2022-08-16T15:54:57.277Z,10.81
2022-08-16T15:57:26.627Z,11.95
2022-08-16T15:59:56.367Z,12.54
2022-08-16T16:02:38.635Z,10.78
2022-08-16T16:05:09.872Z,10.40
2022-08-16T16:07:40.755Z,10.46
2022-08-16T16:10:22.355Z,10.08
2022-08-16T16:12:58.084Z,10.78
2022-08-16T16:15:33.702Z,10.69
2022-08-16T16:18:05.260Z,11.15
2022-08-16T16:20:39.741Z,12.14
2022-08-16T16:23:10.347Z,11.30
2022-08-16T16:25:38.831Z,10.77
2022-08-16T16:28:12.845Z,11.53
2022-08-16T16:30:56.547Z,11.98
2022-08-16T16:33:26.710Z,11.77
2022-08-16T16:36:00.385Z,10.70
2022-08-16T16:38:30.994Z,11.11
2022-08-16T16:41:11.347Z,11.63
2022-08-16T16:43:41.706Z,11.82
2022-08-16T16:46:40.691Z,11.42
2022-08-16T16:48:56.874Z,11.80
2022-08-16T16:51:24.571Z,11.57
2022-08-16T16:53:56.621Z,12.07
2022-08-16T16:56:30.203Z,12.25
2022-08-16T16:59:04.813Z,12.00
2022-08-16T17:01:59.344Z,12.24
2022-08-16T17:04:32.517Z,12.35
2022-08-16T17:07:03.233Z,11.95
2022-08-16T17:09:30.427Z,12.23
2022-08-16T17:11:58.603Z,12.37
2022-08-16T17:14:33.180Z,12.73
2022-08-16T17:17:02.310Z,13.24
2022-08-16T17:19:31.799Z,13.30
2022-08-16T17:22:00.001Z,12.81
2022-08-16T17:24:31.427Z,13.29
2022-08-16T17:27:07.870Z,13.88
2022-08-16T17:29:42.885Z,13.87
2022-08-16T17:32:33.870Z,13.76
2022-08-16T17:35:08.565Z,14.72
2022-08-16T17:37:48.890Z,14.04
2022-08-16T17:40:38.041Z,14.20
2022-08-16T17:43:14.056Z,14.73
2022-08-16T17:45:42.575Z,15.71
2022-08-16T17:48:09.980Z,14.60
2022-08-16T17:50:37.561Z,15.69
2022-08-16T17:53:07.291Z,14.53
2022-08-16T17:55:38.153Z,14.86
2022-08-16T17:58:09.914Z,15.20
2022-08-16T18:00:52.277Z,13.99
2022-08-16T18:04:06.833Z,15.17
2022-08-16T18:06:23.231Z,15.66
2022-08-16T18:08:55.861Z,16.10
2022-08-16T18:11:27.833Z,16.33
2022-08-16T18:13:55.253Z,15.98
2022-08-16T18:16:22.806Z,15.56
2022-08-16T18:18:49.970Z,16.28
2022-08-16T18:21:35.638Z,16.31
2022-08-16T18:24:02.878Z,16.04
2022-08-16T18:26:30.020Z,15.84
2022-08-16T18:28:57.021Z,16.98
2022-08-16T18:31:25.354Z,17.26
2022-08-16T18:33:55.509Z,17.18
2022-08-16T18:36:24.515Z,16.81
2022-08-16T18:38:52.526Z,16.87
2022-08-16T18:41:22.003Z,16.63
2022-08-16T18:44:23.968Z,16.56
2022-08-16T18:46:36.251Z,16.91
2022-08-16T18:49:03.774Z,16.12
2022-08-16T18:51:32.712Z,15.52
2022-08-16T18:53:59.894Z,15.87
2022-08-16T18:59:30.500Z,16.06
2022-08-16T19:04:48.984Z,16.40
2022-08-16T19:07:29.751Z,16.33
2022-08-16T19:09:59.622Z,17.41
2022-08-16T19:12:38.660Z,16.51
2022-08-16T19:15:14.090Z,17.18
2022-08-16T19:17:41.437Z,16.82
2022-08-16T19:20:11.076Z,16.59
2022-08-16T19:23:02.389Z,16.54
2022-08-16T19:25:46.955Z,17.64
2022-08-16T19:28:49.450Z,17.45
2022-08-16T19:31:04.856Z,16.56
2022-08-16T19:33:32.624Z,16.75
2022-08-16T19:36:00.349Z,16.79
2022-08-16T19:38:27.195Z,17.60
2022-08-16T19:40:54.247Z,17.72
2022-08-16T19:43:22.021Z,17.80
2022-08-16T19:45:49.699Z,17.21
2022-08-16T19:48:16.810Z,19.54
2022-08-16T19:50:43.670Z,17.47
2022-08-16T19:53:19.217Z,17.64
2022-08-16T19:55:47.706Z,17.92
2022-08-16T19:58:15.527Z,17.81
2022-08-16T20:00:43.620Z,18.53
2022-08-16T20:03:18.305Z,17.99
2022-08-16T20:05:45.399Z,18.28
2022-08-16T20:08:13.851Z,17.72
2022-08-16T20:10:45.297Z,17.28
2022-08-16T20:13:21.289Z,18.65
2022-08-16T20:15:50.113Z,18.02
2022-08-16T20:18:24.502Z,18.11
2022-08-16T20:20:52.481Z,19.37
2022-08-16T20:23:24.493Z,19.47
2022-08-16T20:25:56.064Z,18.13
2022-08-16T20:28:40.633Z,18.79
2022-08-16T20:31:12.460Z,17.96
2022-08-16T20:33:40.585Z,17.42
2022-08-16T20:36:07.887Z,19.16
2022-08-16T20:38:35.407Z,18.79
2022-08-16T20:41:02.402Z,18.40
2022-08-16T20:43:29.582Z,19.10
2022-08-16T20:45:56.432Z,19.89
2022-08-16T20:48:23.203Z,20.47
2022-08-16T20:50:50.188Z,21.31
2022-08-16T20:53:17.051Z,20.90
2022-08-16T20:55:44.835Z,20.89
2022-08-16T20:58:11.883Z,21.61
2022-08-16T21:00:38.787Z,20.91
2022-08-16T21:03:07.451Z,19.99
2022-08-16T21:05:34.618Z,18.95
2022-08-16T21:08:02.610Z,19.92
2022-08-16T21:10:50.170Z,19.19
2022-08-16T21:13:17.521Z,18.90
2022-08-16T21:15:44.672Z,18.54
2022-08-16T21:18:11.521Z,19.67
2022-08-16T21:20:38.311Z,19.13
2022-08-16T21:23:07.794Z,19.38
2022-08-16T21:25:37.261Z,17.97
2022-08-16T21:28:40.138Z,18.98
2022-08-16T21:30:57.856Z,19.39
2022-08-16T21:33:24.779Z,19.17
2022-08-16T21:35:52.525Z,20.50
2022-08-16T21:38:30.061Z,19.23
2022-08-16T21:40:59.280Z,18.48
2022-08-16T21:43:31.710Z,18.67
2022-08-16T21:46:00.226Z,20.87
2022-08-16T21:48:33.792Z,21.05
2022-08-16T21:51:15.371Z,22.23
2022-08-16T21:53:44.252Z,21.31
2022-08-16T21:56:16.479Z,19.47
2022-08-16T21:58:53.297Z,20.57
2022-08-16T22:01:23.149Z,18.81
2022-08-16T22:04:35.566Z,19.72
2022-08-16T22:06:39.447Z,18.61
2022-08-16T22:09:07.887Z,19.57
2022-08-16T22:11:34.692Z,19.29
2022-08-16T22:14:01.904Z,19.78
2022-08-16T22:16:31.412Z,20.46
2022-08-16T22:18:58.658Z,19.69
2022-08-16T22:21:26.471Z,19.08
2022-08-16T22:23:57.199Z,19.43
2022-08-16T22:26:31.755Z,19.41
2022-08-16T22:29:01.065Z,20.30
2022-08-16T22:31:28.686Z,21.82
2022-08-16T22:33:56.896Z,21.29
2022-08-16T22:36:24.045Z,20.42
2022-08-16T22:38:58.031Z,21.58
2022-08-16T22:41:26.677Z,21.34
2022-08-16T22:43:53.618Z,19.66
2022-08-16T22:46:20.950Z,20.57
2022-08-16T22:48:50.593Z,22.10
2022-08-16T22:51:22.823Z,22.84
2022-08-16T22:53:50.426Z,21.70
2022-08-16T22:56:17.664Z,22.69
2022-08-16T22:58:45.770Z,20.69
2022-08-16T23:01:13.943Z,20.34
2022-08-16T23:03:41.597Z,19.89
2022-08-16T23:06:10.472Z,20.44
2022-08-16T23:08:40.940Z,20.57
2022-08-16T23:11:21.253Z,20.30
2022-08-16T23:13:54.379Z,20.43
2022-08-16T23:16:33.731Z,20.19
2022-08-16T23:19:10.136Z,22.52
2022-08-16T23:21:39.985Z,20.48
2022-08-16T23:24:08.598Z,20.23
2022-08-16T23:26:47.870Z,22.10
2022-08-16T23:29:24.085Z,20.69
2022-08-16T23:31:59.118Z,20.33
2022-08-16T23:34:27.555Z,21.17
2022-08-16T23:36:55.238Z,20.61
2022-08-16T23:39:22.350Z,19.48
2022-08-16T23:41:49.525Z,20.18
2022-08-16T23:44:55.801Z,20.60
2022-08-16T23:47:06.012Z,20.83
2022-08-16T23:49:57.445Z,20.15
2022-08-16T23:52:54.025Z,20.64
2022-08-16T23:55:07.838Z,21.27
2022-08-16T23:57:34.623Z,20.78
